sensor_id;sensor_type;location;lat;lon;timestamp;temperature;humidity
13998;DHT22;7074;51.508;7.018;2022-11-25T00:00:00;10.60;99.90
13998;DHT22;7074;51.508;7.018;2022-11-25T00:03:02;10.60;99.90
13998;DHT22;7074;51.508;7.018;2022-11-25T00:05:49;10.60;99.90
13998;DHT22;7074;51.508;7.018;2022-11-25T00:08:27;10.50;99.90
13998;DHT22;7074;51.508;7.018;2022-11-25T00:11:02;10.50;99.90
13998;DHT22;7074;51.508;7.018;2022-11-25T00:13:34;10.50;99.90
13998;DHT22;7074;51.508;7.018;2022-11-25T00:16:09;10.50;99.90
13998;DHT22;7074;51.508;7.018;2022-11-25T00:18:49;10.40;99.90
13998;DHT22;7074;51.508;7.018;2022-11-25T00:21:29;10.40;99.90
13998;DHT22;7074;51.508;7.018;2022-11-25T00:24:12;10.40;99.90
13998;DHT22;7074;51.508;7.018;2022-11-25T00:26:41;10.50;99.90
13998;DHT22;7074;51.508;7.018;2022-11-25T00:29:12;10.50;99.90
13998;DHT22;7074;51.508;7.018;2022-11-25T00:31:42;10.50;99.90
13998;DHT22;7074;51.508;7.018;2022-11-25T00:34:12;10.40;99.90
13998;DHT22;7074;51.508;7.018;2022-11-25T00:36:42;10.40;99.90
13998;DHT22;7074;51.508;7.018;2022-11-25T00:39:21;10.40;99.90
13998;DHT22;7074;51.508;7.018;2022-11-25T00:42:16;10.40;99.90
13998;DHT22;7074;51.508;7.018;2022-11-25T00:45:00;10.50;99.90
13998;DHT22;7074;51.508;7.018;2022-11-25T00:47:33;10.40;99.90
13998;DHT22;7074;51.508;7.018;2022-11-25T00:50:03;10.50;99.90
13998;DHT22;7074;51.508;7.018;2022-11-25T00:52:51;10.40;99.90
13998;DHT22;7074;51.508;7.018;2022-11-25T00:55:21;10.50;99.90
13998;DHT22;7074;51.508;7.018;2022-11-25T00:57:49;10.40;99.90
13998;DHT22;7074;51.508;7.018;2022-11-25T01:00:18;10.40;99.90
13998;DHT22;7074;51.508;7.018;2022-11-25T01:02:48;10.40;99.90
13998;DHT22;7074;51.508;7.018;2022-11-25T01:05:25;10.40;99.90
13998;DHT22;7074;51.508;7.018;2022-11-25T01:08:10;10.40;99.90
13998;DHT22;7074;51.508;7.018;2022-11-25T01:10:43;10.40;99.90
13998;DHT22;7074;51.508;7.018;2022-11-25T01:13:11;10.40;99.90
13998;DHT22;7074;51.508;7.018;2022-11-25T01:15:48;10.40;99.90
13998;DHT22;7074;51.508;7.018;2022-11-25T01:18:18;10.40;99.90
13998;DHT22;7074;51.508;7.018;2022-11-25T01:20:46;10.40;99.90
13998;DHT22;7074;51.508;7.018;2022-11-25T01:23:21;10.30;99.90
13998;DHT22;7074;51.508;7.018;2022-11-25T01:25:52;10.40;99.90
13998;DHT22;7074;51.508;7.018;2022-11-25T01:28:19;10.40;99.90
13998;DHT22;7074;51.508;7.018;2022-11-25T01:30:58;10.30;99.90
13998;DHT22;7074;51.508;7.018;2022-11-25T01:33:35;10.30;99.90
13998;DHT22;7074;51.508;7.018;2022-11-25T01:36:13;10.30;99.90
13998;DHT22;7074;51.508;7.018;2022-11-25T01:38:42;10.30;99.90
13998;DHT22;7074;51.508;7.018;2022-11-25T01:41:19;10.40;99.90
13998;DHT22;7074;51.508;7.018;2022-11-25T01:44:09;10.40;99.90
13998;DHT22;7074;51.508;7.018;2022-11-25T01:47:04;10.40;99.90
13998;DHT22;7074;51.508;7.018;2022-11-25T01:50:08;10.30;99.90
13998;DHT22;7074;51.508;7.018;2022-11-25T01:52:45;10.30;99.90
13998;DHT22;7074;51.508;7.018;2022-11-25T01:55:19;10.40;99.90
13998;DHT22;7074;51.508;7.018;2022-11-25T01:57:50;10.40;99.90
13998;DHT22;7074;51.508;7.018;2022-11-25T02:01:17;10.40;99.90
13998;DHT22;7074;51.508;7.018;2022-11-25T02:03:31;10.40;99.90
13998;DHT22;7074;51.508;7.018;2022-11-25T02:06:21;10.40;99.90
13998;DHT22;7074;51.508;7.018;2022-11-25T02:09:05;10.40;99.90
13998;DHT22;7074;51.508;7.018;2022-11-25T02:11:38;10.40;99.90
13998;DHT22;7074;51.508;7.018;2022-11-25T02:14:12;10.40;99.90
13998;DHT22;7074;51.508;7.018;2022-11-25T02:16:40;10.50;99.90
13998;DHT22;7074;51.508;7.018;2022-11-25T02:19:24;10.50;99.90
13998;DHT22;7074;51.508;7.018;2022-11-25T02:25:25;10.50;99.90
13998;DHT22;7074;51.508;7.018;2022-11-25T02:28:21;10.50;99.90
13998;DHT22;7074;51.508;7.018;2022-11-25T02:31:30;10.50;99.90
13998;DHT22;7074;51.508;7.018;2022-11-25T02:34:05;10.50;99.90
13998;DHT22;7074;51.508;7.018;2022-11-25T02:36:40;10.60;99.90
13998;DHT22;7074;51.508;7.018;2022-11-25T02:39:19;10.60;99.90
13998;DHT22;7074;51.508;7.018;2022-11-25T02:42:08;10.70;99.90
13998;DHT22;7074;51.508;7.018;2022-11-25T02:44:37;10.70;99.90
13998;DHT22;7074;51.508;7.018;2022-11-25T02:47:31;10.70;99.90
13998;DHT22;7074;51.508;7.018;2022-11-25T02:50:06;10.80;99.90
13998;DHT22;7074;51.508;7.018;2022-11-25T07:35:15;10.90;99.90
13998;DHT22;7074;51.508;7.018;2022-11-25T07:37:57;11.00;99.90
13998;DHT22;7074;51.508;7.018;2022-11-25T07:41:54;11.00;99.90
13998;DHT22;7074;51.508;7.018;2022-11-25T07:44:54;10.90;99.90
13998;DHT22;7074;51.508;7.018;2022-11-25T07:48:27;11.00;99.90
13998;DHT22;7074;51.508;7.018;2022-11-25T07:51:36;11.00;99.90
13998;DHT22;7074;51.508;7.018;2022-11-25T07:54:45;11.00;99.90
13998;DHT22;7074;51.508;7.018;2022-11-25T07:58:10;11.00;99.90
13998;DHT22;7074;51.508;7.018;2022-11-25T08:01:18;11.10;99.90
13998;DHT22;7074;51.508;7.018;2022-11-25T08:03:48;11.10;99.90
13998;DHT22;7074;51.508;7.018;2022-11-25T08:06:17;11.20;99.90
13998;DHT22;7074;51.508;7.018;2022-11-25T08:08:45;11.20;99.90
13998;DHT22;7074;51.508;7.018;2022-11-25T08:11:13;11.20;99.90
13998;DHT22;7074;51.508;7.018;2022-11-25T08:13:44;11.30;99.90
13998;DHT22;7074;51.508;7.018;2022-11-25T08:16:12;11.20;99.90
13998;DHT22;7074;51.508;7.018;2022-11-25T08:19:11;11.30;99.90
13998;DHT22;7074;51.508;7.018;2022-11-25T08:23:15;11.40;99.90
13998;DHT22;7074;51.508;7.018;2022-11-25T08:26:19;11.30;99.90
13998;DHT22;7074;51.508;7.018;2022-11-25T08:29:28;11.30;99.90
13998;DHT22;7074;51.508;7.018;2022-11-25T08:32:54;11.30;99.90
13998;DHT22;7074;51.508;7.018;2022-11-25T08:39:23;11.30;99.90
13998;DHT22;7074;51.508;7.018;2022-11-25T08:42:20;11.30;99.90
13998;DHT22;7074;51.508;7.018;2022-11-25T08:44:51;11.40;99.90
13998;DHT22;7074;51.508;7.018;2022-11-25T08:47:19;11.40;99.90
13998;DHT22;7074;51.508;7.018;2022-11-25T08:49:49;11.50;99.90
13998;DHT22;7074;51.508;7.018;2022-11-25T08:52:18;11.50;99.90
13998;DHT22;7074;51.508;7.018;2022-11-25T08:54:45;11.60;99.90
13998;DHT22;7074;51.508;7.018;2022-11-25T08:57:13;11.60;99.90
13998;DHT22;7074;51.508;7.018;2022-11-25T08:59:41;11.60;99.90
13998;DHT22;7074;51.508;7.018;2022-11-25T09:02:10;11.70;99.90
13998;DHT22;7074;51.508;7.018;2022-11-25T09:04:39;11.70;99.90
13998;DHT22;7074;51.508;7.018;2022-11-25T09:07:06;11.70;99.90
13998;DHT22;7074;51.508;7.018;2022-11-25T09:09:39;11.80;99.90
13998;DHT22;7074;51.508;7.018;2022-11-25T09:12:09;11.80;99.90
13998;DHT22;7074;51.508;7.018;2022-11-25T09:14:37;11.80;99.90
13998;DHT22;7074;51.508;7.018;2022-11-25T09:17:08;11.80;99.90
13998;DHT22;7074;51.508;7.018;2022-11-25T09:19:35;11.90;99.90
13998;DHT22;7074;51.508;7.018;2022-11-25T09:22:03;12.00;99.90
13998;DHT22;7074;51.508;7.018;2022-11-25T09:24:30;12.00;99.90
13998;DHT22;7074;51.508;7.018;2022-11-25T09:26:58;12.00;99.90
13998;DHT22;7074;51.508;7.018;2022-11-25T09:29:26;12.00;99.90
13998;DHT22;7074;51.508;7.018;2022-11-25T09:31:55;12.00;99.90
13998;DHT22;7074;51.508;7.018;2022-11-25T09:34:22;12.00;99.90
13998;DHT22;7074;51.508;7.018;2022-11-25T09:36:49;12.00;99.90
13998;DHT22;7074;51.508;7.018;2022-11-25T09:39:16;12.00;99.90
13998;DHT22;7074;51.508;7.018;2022-11-25T09:41:58;12.10;99.90
13998;DHT22;7074;51.508;7.018;2022-11-25T09:44:58;12.10;99.90
13998;DHT22;7074;51.508;7.018;2022-11-25T09:47:53;12.10;99.90
13998;DHT22;7074;51.508;7.018;2022-11-25T09:50:30;12.10;99.90
13998;DHT22;7074;51.508;7.018;2022-11-25T09:53:08;12.10;99.90
13998;DHT22;7074;51.508;7.018;2022-11-25T09:55:42;12.00;99.90
13998;DHT22;7074;51.508;7.018;2022-11-25T09:58:20;12.00;99.90
13998;DHT22;7074;51.508;7.018;2022-11-25T10:00:49;12.00;99.90
13998;DHT22;7074;51.508;7.018;2022-11-25T10:03:27;12.00;99.90
13998;DHT22;7074;51.508;7.018;2022-11-25T10:06:01;11.90;99.90
13998;DHT22;7074;51.508;7.018;2022-11-25T10:08:35;11.80;99.90
13998;DHT22;7074;51.508;7.018;2022-11-25T10:11:14;11.80;99.90
13998;DHT22;7074;51.508;7.018;2022-11-25T10:13:48;11.80;99.90
13998;DHT22;7074;51.508;7.018;2022-11-25T10:16:28;11.80;99.90
13998;DHT22;7074;51.508;7.018;2022-11-25T10:18:59;11.70;99.90
13998;DHT22;7074;51.508;7.018;2022-11-25T10:21:27;11.70;99.90
13998;DHT22;7074;51.508;7.018;2022-11-25T10:23:54;11.70;99.90
13998;DHT22;7074;51.508;7.018;2022-11-25T10:26:28;11.70;99.90
13998;DHT22;7074;51.508;7.018;2022-11-25T10:29:15;11.80;99.90
13998;DHT22;7074;51.508;7.018;2022-11-25T10:31:45;11.80;99.90
13998;DHT22;7074;51.508;7.018;2022-11-25T10:34:20;11.80;99.90
13998;DHT22;7074;51.508;7.018;2022-11-25T10:36:50;11.90;99.90
13998;DHT22;7074;51.508;7.018;2022-11-25T10:39:21;12.00;99.90
13998;DHT22;7074;51.508;7.018;2022-11-25T10:41:54;12.10;99.90
13998;DHT22;7074;51.508;7.018;2022-11-25T10:44:25;12.20;99.90
13998;DHT22;7074;51.508;7.018;2022-11-25T10:47:02;12.30;99.90
13998;DHT22;7074;51.508;7.018;2022-11-25T10:49:40;12.30;99.90
13998;DHT22;7074;51.508;7.018;2022-11-25T10:52:12;12.40;99.90
13998;DHT22;7074;51.508;7.018;2022-11-25T10:54:40;12.30;99.90
13998;DHT22;7074;51.508;7.018;2022-11-25T10:57:17;12.40;99.90
13998;DHT22;7074;51.508;7.018;2022-11-25T10:59:57;12.40;99.90
13998;DHT22;7074;51.508;7.018;2022-11-25T11:02:30;12.50;99.90
13998;DHT22;7074;51.508;7.018;2022-11-25T11:04:59;12.50;99.90
13998;DHT22;7074;51.508;7.018;2022-11-25T11:07:31;12.50;99.90
13998;DHT22;7074;51.508;7.018;2022-11-25T11:10:19;12.60;99.90
13998;DHT22;7074;51.508;7.018;2022-11-25T11:12:54;12.70;99.90
13998;DHT22;7074;51.508;7.018;2022-11-25T11:15:25;12.60;99.90
13998;DHT22;7074;51.508;7.018;2022-11-25T11:17:53;12.50;99.90
13998;DHT22;7074;51.508;7.018;2022-11-25T11:20:22;12.50;99.90
13998;DHT22;7074;51.508;7.018;2022-11-25T11:23:01;12.60;99.90
13998;DHT22;7074;51.508;7.018;2022-11-25T11:25:30;12.60;99.90
13998;DHT22;7074;51.508;7.018;2022-11-25T11:27:59;12.80;99.90
13998;DHT22;7074;51.508;7.018;2022-11-25T11:30:29;12.80;99.90
13998;DHT22;7074;51.508;7.018;2022-11-25T11:33:02;12.80;99.90
13998;DHT22;7074;51.508;7.018;2022-11-25T11:41:14;13.00;99.90
13998;DHT22;7074;51.508;7.018;2022-11-25T11:46:52;13.10;99.90
13998;DHT22;7074;51.508;7.018;2022-11-25T11:49:44;13.10;99.90
13998;DHT22;7074;51.508;7.018;2022-11-25T11:52:20;13.20;99.90
13998;DHT22;7074;51.508;7.018;2022-11-25T11:54:55;13.30;99.90
13998;DHT22;7074;51.508;7.018;2022-11-25T11:57:33;13.40;99.90
13998;DHT22;7074;51.508;7.018;2022-11-25T12:00:04;13.40;99.90
13998;DHT22;7074;51.508;7.018;2022-11-25T12:02:52;13.40;99.90
13998;DHT22;7074;51.508;7.018;2022-11-25T12:05:23;13.50;99.90
13998;DHT22;7074;51.508;7.018;2022-11-25T12:08:00;13.40;99.90
13998;DHT22;7074;51.508;7.018;2022-11-25T12:10:32;13.40;99.90
13998;DHT22;7074;51.508;7.018;2022-11-25T12:13:11;13.30;99.90
13998;DHT22;7074;51.508;7.018;2022-11-25T12:15:46;13.30;99.90
13998;DHT22;7074;51.508;7.018;2022-11-25T12:18:25;13.20;99.90
13998;DHT22;7074;51.508;7.018;2022-11-25T12:21:00;13.00;99.90
13998;DHT22;7074;51.508;7.018;2022-11-25T12:23:37;13.00;99.90
13998;DHT22;7074;51.508;7.018;2022-11-25T12:26:10;13.00;99.90
13998;DHT22;7074;51.508;7.018;2022-11-25T12:28:41;13.00;99.90
13998;DHT22;7074;51.508;7.018;2022-11-25T12:31:14;13.10;99.90
13998;DHT22;7074;51.508;7.018;2022-11-25T12:33:52;13.10;99.90
13998;DHT22;7074;51.508;7.018;2022-11-25T12:36:27;13.10;99.90
13998;DHT22;7074;51.508;7.018;2022-11-25T12:39:02;13.10;99.90
13998;DHT22;7074;51.508;7.018;2022-11-25T12:41:39;13.20;99.90
13998;DHT22;7074;51.508;7.018;2022-11-25T12:44:13;13.20;99.90
13998;DHT22;7074;51.508;7.018;2022-11-25T12:46:44;13.10;99.90
13998;DHT22;7074;51.508;7.018;2022-11-25T12:49:17;13.10;99.90
13998;DHT22;7074;51.508;7.018;2022-11-25T12:52:08;13.00;99.90
13998;DHT22;7074;51.508;7.018;2022-11-25T13:01:28;13.10;99.90
13998;DHT22;7074;51.508;7.018;2022-11-25T13:04:25;13.10;99.90
13998;DHT22;7074;51.508;7.018;2022-11-25T13:10:25;13.10;99.90
13998;DHT22;7074;51.508;7.018;2022-11-25T13:13:10;13.10;99.90
13998;DHT22;7074;51.508;7.018;2022-11-25T13:15:41;13.20;99.90
13998;DHT22;7074;51.508;7.018;2022-11-25T13:18:12;13.30;99.90
13998;DHT22;7074;51.508;7.018;2022-11-25T13:20:51;13.50;99.90
13998;DHT22;7074;51.508;7.018;2022-11-25T13:23:31;13.50;99.90
13998;DHT22;7074;51.508;7.018;2022-11-25T13:26:48;13.50;99.90
13998;DHT22;7074;51.508;7.018;2022-11-25T13:32:46;13.50;99.90
13998;DHT22;7074;51.508;7.018;2022-11-25T13:35:35;13.50;99.90
13998;DHT22;7074;51.508;7.018;2022-11-25T13:38:56;13.40;99.90
13998;DHT22;7074;51.508;7.018;2022-11-25T13:41:48;13.50;99.90
13998;DHT22;7074;51.508;7.018;2022-11-25T13:44:28;13.40;99.90
13998;DHT22;7074;51.508;7.018;2022-11-25T13:46:59;13.40;99.90
13998;DHT22;7074;51.508;7.018;2022-11-25T13:49:53;13.30;99.90
13998;DHT22;7074;51.508;7.018;2022-11-25T13:52:37;13.40;99.90
13998;DHT22;7074;51.508;7.018;2022-11-25T13:55:22;13.40;99.90
13998;DHT22;7074;51.508;7.018;2022-11-25T14:04:15;13.30;99.90
13998;DHT22;7074;51.508;7.018;2022-11-25T14:07:18;13.30;99.90
13998;DHT22;7074;51.508;7.018;2022-11-25T14:31:13;13.10;99.90
13998;DHT22;7074;51.508;7.018;2022-11-25T14:35:04;13.10;99.90
13998;DHT22;7074;51.508;7.018;2022-11-25T14:38:28;13.00;99.90
13998;DHT22;7074;51.508;7.018;2022-11-25T14:45:20;13.00;99.90
13998;DHT22;7074;51.508;7.018;2022-11-25T14:47:47;13.00;99.90
13998;DHT22;7074;51.508;7.018;2022-11-25T14:50:15;13.00;99.90
13998;DHT22;7074;51.508;7.018;2022-11-25T14:52:43;13.00;99.90
13998;DHT22;7074;51.508;7.018;2022-11-25T14:55:13;13.00;99.90
13998;DHT22;7074;51.508;7.018;2022-11-25T14:57:43;13.00;99.90
13998;DHT22;7074;51.508;7.018;2022-11-25T15:00:14;13.00;99.90
13998;DHT22;7074;51.508;7.018;2022-11-25T15:02:52;13.00;99.90
13998;DHT22;7074;51.508;7.018;2022-11-25T15:05:21;13.00;99.90
13998;DHT22;7074;51.508;7.018;2022-11-25T15:07:59;13.00;99.90
13998;DHT22;7074;51.508;7.018;2022-11-25T15:10:40;13.00;99.90
13998;DHT22;7074;51.508;7.018;2022-11-25T15:13:19;13.00;99.90
13998;DHT22;7074;51.508;7.018;2022-11-25T15:15:49;13.00;99.90
13998;DHT22;7074;51.508;7.018;2022-11-25T15:18:21;13.00;99.90
13998;DHT22;7074;51.508;7.018;2022-11-25T15:20:52;12.90;99.90
13998;DHT22;7074;51.508;7.018;2022-11-25T15:23:26;12.90;99.90
13998;DHT22;7074;51.508;7.018;2022-11-25T15:25:56;12.90;99.90
13998;DHT22;7074;51.508;7.018;2022-11-25T15:28:24;12.80;99.90
13998;DHT22;7074;51.508;7.018;2022-11-25T15:30:55;12.80;99.90
13998;DHT22;7074;51.508;7.018;2022-11-25T15:33:26;12.80;99.90
13998;DHT22;7074;51.508;7.018;2022-11-25T15:35:54;12.80;99.90
13998;DHT22;7074;51.508;7.018;2022-11-25T15:38:35;12.70;99.90
13998;DHT22;7074;51.508;7.018;2022-11-25T15:41:03;12.70;99.90
13998;DHT22;7074;51.508;7.018;2022-11-25T15:43:31;12.70;99.90
13998;DHT22;7074;51.508;7.018;2022-11-25T15:46:02;12.70;99.90
13998;DHT22;7074;51.508;7.018;2022-11-25T15:48:36;12.70;99.90
13998;DHT22;7074;51.508;7.018;2022-11-25T15:51:12;12.60;99.90
13998;DHT22;7074;51.508;7.018;2022-11-25T15:53:41;12.60;99.90
13998;DHT22;7074;51.508;7.018;2022-11-25T15:56:14;12.60;99.90
13998;DHT22;7074;51.508;7.018;2022-11-25T15:58:46;12.60;99.90
13998;DHT22;7074;51.508;7.018;2022-11-25T16:01:20;12.60;99.90
13998;DHT22;7074;51.508;7.018;2022-11-25T16:03:50;12.60;99.90
13998;DHT22;7074;51.508;7.018;2022-11-25T16:06:19;12.60;99.90
13998;DHT22;7074;51.508;7.018;2022-11-25T16:08:52;12.60;99.90
13998;DHT22;7074;51.508;7.018;2022-11-25T16:11:19;12.60;99.90
13998;DHT22;7074;51.508;7.018;2022-11-25T16:13:48;12.60;99.90
13998;DHT22;7074;51.508;7.018;2022-11-25T16:16:24;12.60;99.90
13998;DHT22;7074;51.508;7.018;2022-11-25T16:19:05;12.60;99.90
13998;DHT22;7074;51.508;7.018;2022-11-25T16:21:40;12.60;99.90
13998;DHT22;7074;51.508;7.018;2022-11-25T16:24:17;12.60;99.90
13998;DHT22;7074;51.508;7.018;2022-11-25T16:26:49;12.60;99.90
13998;DHT22;7074;51.508;7.018;2022-11-25T16:29:19;12.60;99.90
13998;DHT22;7074;51.508;7.018;2022-11-25T16:31:48;12.60;99.90
13998;DHT22;7074;51.508;7.018;2022-11-25T16:34:19;12.60;99.90
13998;DHT22;7074;51.508;7.018;2022-11-25T16:36:46;12.60;99.90
13998;DHT22;7074;51.508;7.018;2022-11-25T16:39:13;12.60;99.90
13998;DHT22;7074;51.508;7.018;2022-11-25T16:41:52;12.60;99.90
13998;DHT22;7074;51.508;7.018;2022-11-25T16:44:22;12.50;99.90
13998;DHT22;7074;51.508;7.018;2022-11-25T16:46:50;12.50;99.90
13998;DHT22;7074;51.508;7.018;2022-11-25T16:49:20;12.50;99.90
13998;DHT22;7074;51.508;7.018;2022-11-25T16:51:50;12.50;99.90
13998;DHT22;7074;51.508;7.018;2022-11-25T16:54:24;12.60;99.90
13998;DHT22;7074;51.508;7.018;2022-11-25T16:56:53;12.60;99.90
13998;DHT22;7074;51.508;7.018;2022-11-25T16:59:27;12.60;99.90
13998;DHT22;7074;51.508;7.018;2022-11-25T17:01:55;12.60;99.90
13998;DHT22;7074;51.508;7.018;2022-11-25T17:04:24;12.60;99.90
13998;DHT22;7074;51.508;7.018;2022-11-25T17:06:52;12.60;99.90
13998;DHT22;7074;51.508;7.018;2022-11-25T17:09:21;12.50;99.90
13998;DHT22;7074;51.508;7.018;2022-11-25T17:11:51;12.50;99.90
13998;DHT22;7074;51.508;7.018;2022-11-25T17:14:23;12.60;99.90
13998;DHT22;7074;51.508;7.018;2022-11-25T17:16:53;12.50;99.90
13998;DHT22;7074;51.508;7.018;2022-11-25T17:19:21;12.50;99.90
13998;DHT22;7074;51.508;7.018;2022-11-25T17:21:49;12.50;99.90
13998;DHT22;7074;51.508;7.018;2022-11-25T17:24:18;12.50;99.90
13998;DHT22;7074;51.508;7.018;2022-11-25T17:26:48;12.50;99.90
13998;DHT22;7074;51.508;7.018;2022-11-25T17:29:19;12.40;99.90
13998;DHT22;7074;51.508;7.018;2022-11-25T17:31:47;12.40;99.90
13998;DHT22;7074;51.508;7.018;2022-11-25T17:34:16;12.40;99.90
13998;DHT22;7074;51.508;7.018;2022-11-25T17:36:44;12.40;99.90
13998;DHT22;7074;51.508;7.018;2022-11-25T17:39:13;12.40;99.90
13998;DHT22;7074;51.508;7.018;2022-11-25T17:41:44;12.40;99.90
13998;DHT22;7074;51.508;7.018;2022-11-25T17:44:17;12.40;99.90
13998;DHT22;7074;51.508;7.018;2022-11-25T17:46:47;12.40;99.90
13998;DHT22;7074;51.508;7.018;2022-11-25T17:49:14;12.40;99.90
13998;DHT22;7074;51.508;7.018;2022-11-25T17:51:42;12.30;99.90
13998;DHT22;7074;51.508;7.018;2022-11-25T17:54:10;12.30;99.90
13998;DHT22;7074;51.508;7.018;2022-11-25T17:56:40;12.30;99.90
13998;DHT22;7074;51.508;7.018;2022-11-25T17:59:14;12.30;99.90
13998;DHT22;7074;51.508;7.018;2022-11-25T18:01:42;12.20;99.90
13998;DHT22;7074;51.508;7.018;2022-11-25T18:04:14;12.30;99.90
13998;DHT22;7074;51.508;7.018;2022-11-25T18:06:42;12.30;99.90
13998;DHT22;7074;51.508;7.018;2022-11-25T18:09:09;12.30;99.90
13998;DHT22;7074;51.508;7.018;2022-11-25T18:11:41;12.30;99.90
13998;DHT22;7074;51.508;7.018;2022-11-25T18:14:12;12.30;99.90
13998;DHT22;7074;51.508;7.018;2022-11-25T18:16:40;12.20;99.90
13998;DHT22;7074;51.508;7.018;2022-11-25T18:19:10;12.20;99.90
13998;DHT22;7074;51.508;7.018;2022-11-25T18:21:38;12.20;99.90
13998;DHT22;7074;51.508;7.018;2022-11-25T18:24:06;12.10;99.90
13998;DHT22;7074;51.508;7.018;2022-11-25T18:26:40;12.10;99.90
13998;DHT22;7074;51.508;7.018;2022-11-25T18:29:13;12.10;99.90
13998;DHT22;7074;51.508;7.018;2022-11-25T18:31:41;12.10;99.90
13998;DHT22;7074;51.508;7.018;2022-11-25T18:34:13;12.30;99.90
13998;DHT22;7074;51.508;7.018;2022-11-25T18:36:40;12.20;99.90
13998;DHT22;7074;51.508;7.018;2022-11-25T18:39:08;12.20;99.90
13998;DHT22;7074;51.508;7.018;2022-11-25T18:41:36;12.10;99.90
13998;DHT22;7074;51.508;7.018;2022-11-25T18:44:15;12.10;99.90
13998;DHT22;7074;51.508;7.018;2022-11-25T18:46:45;12.10;99.90
13998;DHT22;7074;51.508;7.018;2022-11-25T18:49:13;12.10;99.90
13998;DHT22;7074;51.508;7.018;2022-11-25T18:51:41;12.00;99.90
13998;DHT22;7074;51.508;7.018;2022-11-25T18:54:09;12.10;99.90
13998;DHT22;7074;51.508;7.018;2022-11-25T18:56:38;12.00;99.90
13998;DHT22;7074;51.508;7.018;2022-11-25T18:59:12;12.00;99.90
13998;DHT22;7074;51.508;7.018;2022-11-25T19:01:41;12.00;99.90
13998;DHT22;7074;51.508;7.018;2022-11-25T19:04:14;12.00;99.90
13998;DHT22;7074;51.508;7.018;2022-11-25T19:06:42;12.00;99.90
13998;DHT22;7074;51.508;7.018;2022-11-25T19:09:09;11.90;99.90
13998;DHT22;7074;51.508;7.018;2022-11-25T19:11:41;11.90;99.90
13998;DHT22;7074;51.508;7.018;2022-11-25T19:14:13;11.90;99.90
13998;DHT22;7074;51.508;7.018;2022-11-25T19:16:42;11.90;99.90
13998;DHT22;7074;51.508;7.018;2022-11-25T19:19:12;11.90;99.90
13998;DHT22;7074;51.508;7.018;2022-11-25T19:21:40;11.90;99.90
13998;DHT22;7074;51.508;7.018;2022-11-25T19:24:11;11.90;99.90
13998;DHT22;7074;51.508;7.018;2022-11-25T19:26:42;11.90;99.90
13998;DHT22;7074;51.508;7.018;2022-11-25T19:29:17;11.90;99.90
13998;DHT22;7074;51.508;7.018;2022-11-25T19:31:46;11.90;99.90
13998;DHT22;7074;51.508;7.018;2022-11-25T19:34:24;11.90;99.90
13998;DHT22;7074;51.508;7.018;2022-11-25T19:36:52;11.90;99.90
13998;DHT22;7074;51.508;7.018;2022-11-25T19:39:19;11.80;99.90
13998;DHT22;7074;51.508;7.018;2022-11-25T19:41:47;11.80;99.90
13998;DHT22;7074;51.508;7.018;2022-11-25T19:44:16;11.70;99.90
13998;DHT22;7074;51.508;7.018;2022-11-25T19:46:46;11.70;99.90
13998;DHT22;7074;51.508;7.018;2022-11-25T19:49:16;11.70;99.90
13998;DHT22;7074;51.508;7.018;2022-11-25T19:51:44;11.70;99.90
13998;DHT22;7074;51.508;7.018;2022-11-25T19:54:14;11.70;99.90
13998;DHT22;7074;51.508;7.018;2022-11-25T19:56:42;11.80;99.90
13998;DHT22;7074;51.508;7.018;2022-11-25T19:59:10;11.70;99.90
13998;DHT22;7074;51.508;7.018;2022-11-25T20:01:40;11.70;99.90
13998;DHT22;7074;51.508;7.018;2022-11-25T20:04:15;11.70;99.90
13998;DHT22;7074;51.508;7.018;2022-11-25T20:06:44;11.70;99.90
13998;DHT22;7074;51.508;7.018;2022-11-25T20:09:11;11.70;99.90
13998;DHT22;7074;51.508;7.018;2022-11-25T20:11:39;11.70;99.90
13998;DHT22;7074;51.508;7.018;2022-11-25T20:14:06;11.70;99.90
13998;DHT22;7074;51.508;7.018;2022-11-25T20:16:35;11.70;99.90
13998;DHT22;7074;51.508;7.018;2022-11-25T20:19:05;11.70;99.90
13998;DHT22;7074;51.508;7.018;2022-11-25T20:21:35;11.70;99.90
13998;DHT22;7074;51.508;7.018;2022-11-25T20:24:05;11.70;99.90
13998;DHT22;7074;51.508;7.018;2022-11-25T20:26:37;11.70;99.90
13998;DHT22;7074;51.508;7.018;2022-11-25T20:29:13;11.60;99.90
13998;DHT22;7074;51.508;7.018;2022-11-25T20:31:41;11.60;99.90
13998;DHT22;7074;51.508;7.018;2022-11-25T20:34:10;11.60;99.90
13998;DHT22;7074;51.508;7.018;2022-11-25T20:36:39;11.60;99.90
13998;DHT22;7074;51.508;7.018;2022-11-25T20:39:09;11.50;99.90
13998;DHT22;7074;51.508;7.018;2022-11-25T20:41:41;11.50;99.90
13998;DHT22;7074;51.508;7.018;2022-11-25T20:44:10;11.40;99.90
13998;DHT22;7074;51.508;7.018;2022-11-25T20:46:39;11.40;99.90
13998;DHT22;7074;51.508;7.018;2022-11-25T20:49:18;11.40;99.90
13998;DHT22;7074;51.508;7.018;2022-11-25T20:51:47;11.30;99.90
13998;DHT22;7074;51.508;7.018;2022-11-25T20:54:17;11.40;99.90
13998;DHT22;7074;51.508;7.018;2022-11-25T20:56:44;11.30;99.90
13998;DHT22;7074;51.508;7.018;2022-11-25T20:59:18;11.30;99.90
13998;DHT22;7074;51.508;7.018;2022-11-25T21:01:46;11.30;99.90
13998;DHT22;7074;51.508;7.018;2022-11-25T21:04:15;11.30;99.90
13998;DHT22;7074;51.508;7.018;2022-11-25T21:06:43;11.20;99.90
13998;DHT22;7074;51.508;7.018;2022-11-25T21:09:16;11.20;99.90
13998;DHT22;7074;51.508;7.018;2022-11-25T21:11:44;11.20;99.90
13998;DHT22;7074;51.508;7.018;2022-11-25T21:14:13;11.20;99.90
13998;DHT22;7074;51.508;7.018;2022-11-25T21:16:41;11.10;99.90
13998;DHT22;7074;51.508;7.018;2022-11-25T21:19:08;11.00;99.90
13998;DHT22;7074;51.508;7.018;2022-11-25T21:21:39;11.00;99.90
13998;DHT22;7074;51.508;7.018;2022-11-25T21:24:16;11.00;99.90
13998;DHT22;7074;51.508;7.018;2022-11-25T21:26:48;10.90;99.90
13998;DHT22;7074;51.508;7.018;2022-11-25T21:29:16;10.90;99.90
13998;DHT22;7074;51.508;7.018;2022-11-25T21:31:44;10.90;99.90
13998;DHT22;7074;51.508;7.018;2022-11-25T21:34:12;10.90;99.90
13998;DHT22;7074;51.508;7.018;2022-11-25T21:36:42;10.80;99.90
13998;DHT22;7074;51.508;7.018;2022-11-25T21:39:22;10.70;99.90
13998;DHT22;7074;51.508;7.018;2022-11-25T21:41:51;10.70;99.90
13998;DHT22;7074;51.508;7.018;2022-11-25T21:44:24;10.70;99.90
13998;DHT22;7074;51.508;7.018;2022-11-25T21:46:53;10.70;99.90
13998;DHT22;7074;51.508;7.018;2022-11-25T21:49:21;10.70;99.90
13998;DHT22;7074;51.508;7.018;2022-11-25T21:51:53;10.60;99.90
13998;DHT22;7074;51.508;7.018;2022-11-25T21:54:21;10.60;99.90
13998;DHT22;7074;51.508;7.018;2022-11-25T21:56:48;10.60;99.90
13998;DHT22;7074;51.508;7.018;2022-11-25T21:59:18;10.50;99.90
13998;DHT22;7074;51.508;7.018;2022-11-25T22:01:48;10.50;99.90
13998;DHT22;7074;51.508;7.018;2022-11-25T22:04:19;10.50;99.90
13998;DHT22;7074;51.508;7.018;2022-11-25T22:06:49;10.40;99.90
13998;DHT22;7074;51.508;7.018;2022-11-25T22:09:17;10.30;99.90
13998;DHT22;7074;51.508;7.018;2022-11-25T22:11:46;10.30;99.90
13998;DHT22;7074;51.508;7.018;2022-11-25T22:14:22;10.20;99.90
13998;DHT22;7074;51.508;7.018;2022-11-25T22:16:53;10.20;99.90
13998;DHT22;7074;51.508;7.018;2022-11-25T22:19:26;10.20;99.90